x

Jonesport, Me - 20 Nm Se Of Jonesport, Me (44027) Wave Buoy

10:50pm - Fri 30th Jan 2015 All times are AST. -4 hours from GMT.

  • Sig Wave height 5.2ft
  • Peak Period 6s
  • Average Period 5s
  • Wind
    22mph, 25mph gusts
  • Sea Temp 43°f
  • Air Temp 35°f
  • Sea Pressure 1002.5mb
  • Jonesport, Me - 20 Nm Se Of Jonesport, Me
  • Jonesport, Me - 20 Nm Se Of Jonesport, Me

More Historic Weather Station data

Upgrade to MSW Pro to gain access to the past 30 days of data for over 8000 Wavebouys and Weather Stations around the globe.

Join Pro

Comparision Forecast

View Surf forecast
   
Fri 01/30 10:50pm 5ft 6s 5s 22 25 mph 1002.5mb 43f 35f
9:50pm 4.5ft 6s 4s 22 25 mph 1003.4mb 44f 36f
8:50pm 5ft 6s 5s 22 25 mph 1003.8mb 44f 36f
7:50pm 5ft 6s 5s 22 27 mph 1004.8mb 43f 36f
6:50pm 5ft 5s 4s 22 27 mph 1005.9mb 43f 36f
5:50pm 5ft 5s 4s 22 27 mph 1006.5mb 43f 37f
4:50pm 5ft 5s 4s 20 25 mph 1006.8mb 43f 38f
3:50pm 5ft 5s 4s 20 25 mph 1007.3mb 43f 38f
2:50pm 4.5ft 5s 4s 20 25 mph 1008.1mb 43f 36f
1:50pm 4.5ft 5s 4s 18 22 mph 1008.5mb 43f 36f
12:50pm 4ft 5s 4s 18 22 mph 1010mb 43f 36f
11:50am 3.5ft 5s 4s 18 22 mph 1011mb 43f 36f
10:50am 3ft 4s 4s 18 22 mph 1011.8mb 43f 36f
9:50am 3ft 4s 4s 18 20 mph 1012mb 43f 36f
8:50am 2.5ft 9s 4s 18 22 mph 1011.9mb 43f 37f
7:50am 2.5ft 9s 4s 16 20 mph 1012.8mb 43f 37f
6:50am 2.5ft 9s 4s 16 18 mph 1014mb 43f 37f
5:50am 2.5ft 9s 4s 16 20 mph 1014.7mb 43f 37f
4:50am 2ft 10s 4s 16 20 mph 1015.5mb 43f 37f
3:50am 2ft 11s 4s 16 18 mph 1016.6mb 43f 37f
2:50am 2ft 10s 5s 13 18 mph 1017.2mb 43f 36f
1:50am 2ft 11s 6s 11 13 mph 1017.6mb 43f 36f
12:50am 1.6ft 11s 6s 9 13 mph 1018.2mb 43f 36f
Thu 01/29 11:50pm 2.5ft 11s 6s 7 9 mph 1018.9mb 43f 35f
10:50pm 2.5ft 11s 7s 7 9 mph 1019.4mb 43f 34f
9:50pm 2.5ft 10s 6s 9 11 mph 1019.9mb 43f 34f
8:50pm 2.5ft 9s 6s 9 11 mph 1020.4mb 43f 33f
7:50pm 2.5ft 9s 6s 9 11 mph 1020.7mb 44f 33f
6:50pm 2.5ft 10s 6s 9 11 mph 1021.4mb 44f 32f
5:50pm 2.5ft 11s  -  7 11 mph 1021.3mb 44f 31f
4:50pm 2.5ft 11s 6s 7 11 mph 1021.7mb 44f 31f
3:50pm 2ft 11s 5s 9 13 mph 1021.9mb 44f 30f
2:50pm 2.5ft 11s 5s 7 11 mph 1022.6mb 44f 29f
1:50pm 2.5ft 10s 4s 13 16 mph 1022.9mb 45f 28f
12:50pm 3ft 11s 4s 13 16 mph 1024mb 45f 27f
11:50am 3.5ft 4s 4s 18 20 mph 1024.5mb 45f 26f
10:50am 3.5ft 4s 4s 20 25 mph 1024.5mb 44f 24f
9:50am 4.5ft 4s 4s 22 29 mph 1024.4mb 44f 23f
8:50am 5ft 4s 4s 25 31 mph 1023.7mb 44f 24f
7:50am 5ft 5s 4s 27 31 mph 1022.4mb 44f 23f
6:50am 4.5ft 5s 5s 27 34 mph 1022mb 44f 23f
5:50am 6ft 5s 5s 25 29 mph 1022.1mb 44f 22f
4:50am 6ft 5s 5s 27 34 mph 1022.2mb 44f 22f
3:50am 5ft 5s 5s 27 34 mph 1021.9mb 44f 23f
2:50am 5ft 5s 5s 25 29 mph 1021.4mb 44f 22f
1:50am 5ft 5s 5s 22 29 mph 1020.1mb 44f 22f
12:50am 4.5ft 4s 4s 25 31 mph 1018.9mb 44f 22f
Wed 01/28 11:50pm 5ft 4s 4s 22 29 mph 1018.4mb 44f 23f
10:50pm 5.5ft 5s 5s 25 29 mph 1017.7mb 44f 22f
9:50pm 6ft 5s 5s 27 31 mph 1016.7mb 44f 23f
8:50pm 6ft 5s 5s 25 31 mph 1016mb 44f 22f
7:50pm 6.5ft 5s 5s 25 31 mph 1014.9mb 44f 21f
6:50pm 7ft 5s 5s 25 31 mph 1013.5mb 44f 22f
5:50pm 7ft 5s 5s 27 31 mph 1011.8mb 44f 22f
4:50pm 6.5ft 6s 5s 27 31 mph 1010.1mb 44f 24f
3:50pm 7ft 5s 5s 25 31 mph 1009.4mb 44f 23f
2:50pm 7ft 6s 5s 29 36 mph 1008.2mb 44f 22f
1:50pm 7ft 6s 5s 29 36 mph 1007.6mb 44f 22f
12:50pm 8ft 6s 5s 31 40 mph 1006.5mb 44f 21f
11:50am 8.5ft 6s 5s 31 40 mph 1005.4mb 44f 22f
10:50am 10ft 6s 6s 34 43 mph 1003.7mb 44f 22f
9:50am 10ft 11s 6s 36 43 mph 1002.1mb 43f 22f
8:50am 11.5ft 6s 6s 36 43 mph 1000.9mb 43f 23f
7:50am 13ft 11s 6s 34 45 mph 999.4mb 44f 23f
6:50am 15ft 11s 7s 36 45 mph 997.7mb 44f 26f
5:50am 15ft 12s 7s 38 49 mph 996.7mb 44f 25f
4:50am 14ft 12s 7s 38 47 mph 995.9mb 44f 24f
3:50am 16.5ft 12s 7s 40 47 mph 995.4mb 44f 25f
2:50am 16.5ft 7s 7s 38 45 mph 995mb 44f 25f
1:50am 17.5ft 12s 8s 38 49 mph 994.3mb 44f 25f
12:50am 18.5ft 12s 7s 38 47 mph 993.5mb 44f 26f
Tue 01/27 11:50pm 18ft 12s 7s 40 49 mph 993.5mb 44f 30f
10:50pm 21ft 8s 8s 40 47 mph 993.7mb 44f 30f
9:50pm 23ft 11s 8s 40 47 mph 993.7mb 44f 30f
8:50pm 23ft 9s 8s 43 49 mph 993.2mb 44f 30f
7:50pm  -   -   -  43 54 mph 992.7mb 44f 30f
6:50pm 27.5ft 9s 9s 45 56 mph 992.1mb 44f 30f
5:50pm 25.5ft 11s 8s 49 63 mph 991.8mb 44f 30f
4:50pm 26ft 11s 9s 51 60 mph 991.5mb 44f 30f
3:50pm 27ft 11s 9s 49 63 mph 991.7mb 44f 30f
2:50pm  -   -   -  51 60 mph 993mb 44f 29f
1:50pm 26ft 11s 9s 49 63 mph 994.2mb 44f 29f
12:50pm  -   -   -  47
mph
- - -
11:50am 22.5ft 11s 8s 47 60 mph 998.8mb 44f 26f
10:50am  -   -   -  47 56 mph 1000.5mb 44f 24f
9:50am  -   -   -  47 58 mph 1000.5mb 44f 25f
8:50am 21.5ft 8s 7s 45 54 mph 1001.4mb 43f 24f
7:50am 21.5ft 9s 7s 47 56 mph 1001.7mb 44f 23f
6:50am 20ft 8s 7s 49 60 mph 1002.7mb 44f 22f
5:50am 16ft 8s 7s 47 58 mph 1005.7mb 44f 24f
4:50am 13ft 8s 6s 47 56 mph 1008.3mb 43f 26f